sensor_id;sensor_type;location;lat;lon;timestamp;temperature;humidity
7494;DHT22;3788;49.902;8.590;2024-02-21T00:00:45;8.90;99.90
7494;DHT22;3788;49.902;8.590;2024-02-21T00:03:12;8.90;99.90
7494;DHT22;3788;49.902;8.590;2024-02-21T00:05:38;8.90;99.90
7494;DHT22;3788;49.902;8.590;2024-02-21T00:08:05;8.90;99.90
7494;DHT22;3788;49.902;8.590;2024-02-21T00:10:32;8.90;99.90
7494;DHT22;3788;49.902;8.590;2024-02-21T00:13:00;8.90;99.90
7494;DHT22;3788;49.902;8.590;2024-02-21T00:15:26;8.90;99.90
7494;DHT22;3788;49.902;8.590;2024-02-21T00:17:53;8.90;99.90
7494;DHT22;3788;49.902;8.590;2024-02-21T00:20:20;8.90;99.90
7494;DHT22;3788;49.902;8.590;2024-02-21T00:22:47;8.90;99.90
7494;DHT22;3788;49.902;8.590;2024-02-21T00:25:13;8.90;99.90
7494;DHT22;3788;49.902;8.590;2024-02-21T00:27:40;8.90;99.90
7494;DHT22;3788;49.902;8.590;2024-02-21T00:30:09;8.90;99.90
7494;DHT22;3788;49.902;8.590;2024-02-21T00:32:36;8.90;99.90
7494;DHT22;3788;49.902;8.590;2024-02-21T00:35:03;8.80;99.90
7494;DHT22;3788;49.902;8.590;2024-02-21T00:37:31;8.90;99.90
7494;DHT22;3788;49.902;8.590;2024-02-21T00:39:57;8.80;99.90
7494;DHT22;3788;49.902;8.590;2024-02-21T00:42:24;8.80;99.90
7494;DHT22;3788;49.902;8.590;2024-02-21T00:44:51;8.80;99.90
7494;DHT22;3788;49.902;8.590;2024-02-21T00:47:18;8.80;99.90
7494;DHT22;3788;49.902;8.590;2024-02-21T00:49:45;8.90;99.90
7494;DHT22;3788;49.902;8.590;2024-02-21T00:52:12;8.80;99.90
7494;DHT22;3788;49.902;8.590;2024-02-21T00:54:38;8.80;99.90
7494;DHT22;3788;49.902;8.590;2024-02-21T00:57:05;8.90;99.90
7494;DHT22;3788;49.902;8.590;2024-02-21T00:59:32;8.90;99.90
7494;DHT22;3788;49.902;8.590;2024-02-21T01:01:58;8.90;99.90
7494;DHT22;3788;49.902;8.590;2024-02-21T01:04:26;8.80;99.90
7494;DHT22;3788;49.902;8.590;2024-02-21T01:06:53;8.80;99.90
7494;DHT22;3788;49.902;8.590;2024-02-21T01:09:19;8.80;99.90
7494;DHT22;3788;49.902;8.590;2024-02-21T01:11:46;8.80;99.90
7494;DHT22;3788;49.902;8.590;2024-02-21T01:14:12;8.70;99.90
7494;DHT22;3788;49.902;8.590;2024-02-21T01:16:39;8.70;99.90
7494;DHT22;3788;49.902;8.590;2024-02-21T01:19:06;8.70;99.90
7494;DHT22;3788;49.902;8.590;2024-02-21T01:21:34;8.70;99.90
7494;DHT22;3788;49.902;8.590;2024-02-21T01:24:00;8.70;99.90
7494;DHT22;3788;49.902;8.590;2024-02-21T01:26:27;8.60;99.90
7494;DHT22;3788;49.902;8.590;2024-02-21T01:28:54;8.70;99.90
7494;DHT22;3788;49.902;8.590;2024-02-21T01:31:20;8.70;99.90
7494;DHT22;3788;49.902;8.590;2024-02-21T01:33:47;8.70;99.90
7494;DHT22;3788;49.902;8.590;2024-02-21T01:36:13;8.70;99.90
7494;DHT22;3788;49.902;8.590;2024-02-21T01:38:41;8.70;99.90
7494;DHT22;3788;49.902;8.590;2024-02-21T01:41:08;8.70;99.90
7494;DHT22;3788;49.902;8.590;2024-02-21T01:43:35;8.70;99.90
7494;DHT22;3788;49.902;8.590;2024-02-21T01:46:02;8.60;99.90
7494;DHT22;3788;49.902;8.590;2024-02-21T01:48:29;8.60;99.90
7494;DHT22;3788;49.902;8.590;2024-02-21T01:50:56;8.60;99.90
7494;DHT22;3788;49.902;8.590;2024-02-21T01:53:27;8.60;99.90
7494;DHT22;3788;49.902;8.590;2024-02-21T01:55:56;8.60;99.90
7494;DHT22;3788;49.902;8.590;2024-02-21T01:58:23;8.50;99.90
7494;DHT22;3788;49.902;8.590;2024-02-21T02:00:50;8.50;99.90
7494;DHT22;3788;49.902;8.590;2024-02-21T02:03:17;8.50;99.90
7494;DHT22;3788;49.902;8.590;2024-02-21T02:05:44;8.50;99.90
7494;DHT22;3788;49.902;8.590;2024-02-21T02:08:12;8.50;99.90
7494;DHT22;3788;49.902;8.590;2024-02-21T02:10:39;8.50;99.90
7494;DHT22;3788;49.902;8.590;2024-02-21T02:13:07;8.40;99.90
7494;DHT22;3788;49.902;8.590;2024-02-21T02:15:40;8.40;99.90
7494;DHT22;3788;49.902;8.590;2024-02-21T02:18:07;8.40;99.90
7494;DHT22;3788;49.902;8.590;2024-02-21T02:20:34;8.30;99.90
7494;DHT22;3788;49.902;8.590;2024-02-21T02:23:07;8.30;99.90
7494;DHT22;3788;49.902;8.590;2024-02-21T02:25:35;8.30;99.90
7494;DHT22;3788;49.902;8.590;2024-02-21T02:28:03;8.30;99.90
7494;DHT22;3788;49.902;8.590;2024-02-21T02:30:32;8.20;99.90
7494;DHT22;3788;49.902;8.590;2024-02-21T02:32:58;8.20;99.90
7494;DHT22;3788;49.902;8.590;2024-02-21T02:35:25;8.20;99.90
7494;DHT22;3788;49.902;8.590;2024-02-21T02:37:51;8.20;99.90
7494;DHT22;3788;49.902;8.590;2024-02-21T02:40:18;8.20;99.90
7494;DHT22;3788;49.902;8.590;2024-02-21T02:42:46;8.20;99.90
7494;DHT22;3788;49.902;8.590;2024-02-21T02:45:14;8.20;99.90
7494;DHT22;3788;49.902;8.590;2024-02-21T02:47:41;8.20;99.90
7494;DHT22;3788;49.902;8.590;2024-02-21T02:50:08;8.20;99.90
7494;DHT22;3788;49.902;8.590;2024-02-21T02:52:34;8.20;99.90
7494;DHT22;3788;49.902;8.590;2024-02-21T02:55:01;8.10;99.90
7494;DHT22;3788;49.902;8.590;2024-02-21T02:57:28;8.10;99.90
7494;DHT22;3788;49.902;8.590;2024-02-21T02:59:56;8.10;99.90
7494;DHT22;3788;49.902;8.590;2024-02-21T03:02:22;8.10;99.90
7494;DHT22;3788;49.902;8.590;2024-02-21T03:04:49;8.10;99.90
7494;DHT22;3788;49.902;8.590;2024-02-21T03:07:16;8.00;99.90
7494;DHT22;3788;49.902;8.590;2024-02-21T03:09:43;8.00;99.90
7494;DHT22;3788;49.902;8.590;2024-02-21T03:12:10;8.00;99.90
7494;DHT22;3788;49.902;8.590;2024-02-21T03:14:37;8.00;99.90
7494;DHT22;3788;49.902;8.590;2024-02-21T03:17:05;8.00;99.90
7494;DHT22;3788;49.902;8.590;2024-02-21T03:19:31;8.00;99.90
7494;DHT22;3788;49.902;8.590;2024-02-21T03:21:58;8.00;99.90
7494;DHT22;3788;49.902;8.590;2024-02-21T03:24:25;8.00;99.90
7494;DHT22;3788;49.902;8.590;2024-02-21T03:26:51;8.00;99.90
7494;DHT22;3788;49.902;8.590;2024-02-21T03:29:18;8.00;99.90
7494;DHT22;3788;49.902;8.590;2024-02-21T03:31:44;8.00;99.90
7494;DHT22;3788;49.902;8.590;2024-02-21T03:34:12;8.00;99.90
7494;DHT22;3788;49.902;8.590;2024-02-21T03:36:39;8.00;99.90
7494;DHT22;3788;49.902;8.590;2024-02-21T03:39:05;7.90;99.90
7494;DHT22;3788;49.902;8.590;2024-02-21T03:41:33;7.90;99.90
7494;DHT22;3788;49.902;8.590;2024-02-21T03:44:00;7.90;99.90
7494;DHT22;3788;49.902;8.590;2024-02-21T03:46:27;7.90;99.90
7494;DHT22;3788;49.902;8.590;2024-02-21T03:48:53;7.90;99.90
7494;DHT22;3788;49.902;8.590;2024-02-21T03:51:21;7.90;99.90
7494;DHT22;3788;49.902;8.590;2024-02-21T03:53:48;7.90;99.90
7494;DHT22;3788;49.902;8.590;2024-02-21T03:56:15;7.80;99.90
7494;DHT22;3788;49.902;8.590;2024-02-21T03:58:41;7.80;99.90
7494;DHT22;3788;49.902;8.590;2024-02-21T04:01:08;7.80;99.90
7494;DHT22;3788;49.902;8.590;2024-02-21T04:03:34;7.90;99.90
7494;DHT22;3788;49.902;8.590;2024-02-21T04:06:01;7.90;99.90
7494;DHT22;3788;49.902;8.590;2024-02-21T04:08:29;7.90;99.90
7494;DHT22;3788;49.902;8.590;2024-02-21T04:10:56;7.90;99.90
7494;DHT22;3788;49.902;8.590;2024-02-21T04:13:22;8.00;99.90
7494;DHT22;3788;49.902;8.590;2024-02-21T04:15:49;8.00;99.90
7494;DHT22;3788;49.902;8.590;2024-02-21T04:18:15;8.00;99.90
7494;DHT22;3788;49.902;8.590;2024-02-21T04:20:42;8.00;99.90
7494;DHT22;3788;49.902;8.590;2024-02-21T04:23:09;8.00;99.90
7494;DHT22;3788;49.902;8.590;2024-02-21T04:25:37;8.00;99.90
7494;DHT22;3788;49.902;8.590;2024-02-21T04:28:04;8.10;99.90
7494;DHT22;3788;49.902;8.590;2024-02-21T04:30:31;8.00;99.90
7494;DHT22;3788;49.902;8.590;2024-02-21T04:32:57;8.00;99.90
7494;DHT22;3788;49.902;8.590;2024-02-21T04:35:24;8.00;99.90
7494;DHT22;3788;49.902;8.590;2024-02-21T04:37:51;8.00;99.90
7494;DHT22;3788;49.902;8.590;2024-02-21T04:40:17;8.00;99.90
7494;DHT22;3788;49.902;8.590;2024-02-21T04:42:45;7.90;99.90
7494;DHT22;3788;49.902;8.590;2024-02-21T04:45:12;7.90;99.90
7494;DHT22;3788;49.902;8.590;2024-02-21T04:47:38;7.90;99.90
7494;DHT22;3788;49.902;8.590;2024-02-21T04:50:06;7.80;99.90
7494;DHT22;3788;49.902;8.590;2024-02-21T04:52:32;7.80;99.90
7494;DHT22;3788;49.902;8.590;2024-02-21T04:54:59;7.80;99.90
7494;DHT22;3788;49.902;8.590;2024-02-21T04:57:25;7.80;99.90
7494;DHT22;3788;49.902;8.590;2024-02-21T04:59:53;7.70;99.90
7494;DHT22;3788;49.902;8.590;2024-02-21T05:02:20;7.70;99.90
7494;DHT22;3788;49.902;8.590;2024-02-21T05:04:49;7.70;99.90
7494;DHT22;3788;49.902;8.590;2024-02-21T05:07:16;7.70;99.90
7494;DHT22;3788;49.902;8.590;2024-02-21T05:09:44;7.70;99.90
7494;DHT22;3788;49.902;8.590;2024-02-21T05:12:11;7.60;99.90
7494;DHT22;3788;49.902;8.590;2024-02-21T05:14:38;7.60;99.90
7494;DHT22;3788;49.902;8.590;2024-02-21T05:17:06;7.60;99.90
7494;DHT22;3788;49.902;8.590;2024-02-21T05:19:32;7.60;99.90
7494;DHT22;3788;49.902;8.590;2024-02-21T05:21:59;7.50;99.90
7494;DHT22;3788;49.902;8.590;2024-02-21T05:24:26;7.50;99.90
7494;DHT22;3788;49.902;8.590;2024-02-21T05:26:53;7.50;99.90
7494;DHT22;3788;49.902;8.590;2024-02-21T05:29:20;7.50;99.90
7494;DHT22;3788;49.902;8.590;2024-02-21T05:31:57;7.50;99.90
7494;DHT22;3788;49.902;8.590;2024-02-21T05:34:25;7.50;99.90
7494;DHT22;3788;49.902;8.590;2024-02-21T05:36:52;7.50;99.90
7494;DHT22;3788;49.902;8.590;2024-02-21T05:39:19;7.50;99.90
7494;DHT22;3788;49.902;8.590;2024-02-21T05:41:48;7.60;99.90
7494;DHT22;3788;49.902;8.590;2024-02-21T05:44:14;7.60;99.90
7494;DHT22;3788;49.902;8.590;2024-02-21T05:46:41;7.60;99.90
7494;DHT22;3788;49.902;8.590;2024-02-21T05:49:08;7.60;99.90
7494;DHT22;3788;49.902;8.590;2024-02-21T05:51:36;7.70;99.90
7494;DHT22;3788;49.902;8.590;2024-02-21T05:54:02;7.70;99.90
7494;DHT22;3788;49.902;8.590;2024-02-21T05:56:29;7.70;99.90
7494;DHT22;3788;49.902;8.590;2024-02-21T05:58:56;7.80;99.90
7494;DHT22;3788;49.902;8.590;2024-02-21T06:01:22;7.80;99.90
7494;DHT22;3788;49.902;8.590;2024-02-21T06:03:49;7.80;99.90
7494;DHT22;3788;49.902;8.590;2024-02-21T06:06:16;7.80;99.90
7494;DHT22;3788;49.902;8.590;2024-02-21T06:08:44;7.80;99.90
7494;DHT22;3788;49.902;8.590;2024-02-21T06:11:10;7.80;99.90
7494;DHT22;3788;49.902;8.590;2024-02-21T06:13:38;7.80;99.90
7494;DHT22;3788;49.902;8.590;2024-02-21T06:16:06;7.90;99.90
7494;DHT22;3788;49.902;8.590;2024-02-21T06:18:35;7.90;99.90
7494;DHT22;3788;49.902;8.590;2024-02-21T06:21:03;7.90;99.90
7494;DHT22;3788;49.902;8.590;2024-02-21T06:23:30;7.90;99.90
7494;DHT22;3788;49.902;8.590;2024-02-21T06:25:58;7.90;99.90
7494;DHT22;3788;49.902;8.590;2024-02-21T06:28:24;7.80;99.90
7494;DHT22;3788;49.902;8.590;2024-02-21T06:30:52;7.80;99.90
7494;DHT22;3788;49.902;8.590;2024-02-21T06:33:19;7.80;99.90
7494;DHT22;3788;49.902;8.590;2024-02-21T06:35:48;7.70;99.90
7494;DHT22;3788;49.902;8.590;2024-02-21T06:38:17;7.70;99.90
7494;DHT22;3788;49.902;8.590;2024-02-21T06:40:44;7.70;99.90
7494;DHT22;3788;49.902;8.590;2024-02-21T06:43:17;7.70;99.90
7494;DHT22;3788;49.902;8.590;2024-02-21T06:45:44;7.70;99.90
7494;DHT22;3788;49.902;8.590;2024-02-21T06:48:12;7.70;99.90
7494;DHT22;3788;49.902;8.590;2024-02-21T06:50:39;7.70;99.90
7494;DHT22;3788;49.902;8.590;2024-02-21T06:53:06;7.70;99.90
7494;DHT22;3788;49.902;8.590;2024-02-21T06:55:32;7.60;99.90
7494;DHT22;3788;49.902;8.590;2024-02-21T06:57:59;7.60;99.90
7494;DHT22;3788;49.902;8.590;2024-02-21T07:00:28;7.60;99.90
7494;DHT22;3788;49.902;8.590;2024-02-21T07:02:54;7.60;99.90
7494;DHT22;3788;49.902;8.590;2024-02-21T07:05:21;7.60;99.90
7494;DHT22;3788;49.902;8.590;2024-02-21T07:07:48;7.60;99.90
7494;DHT22;3788;49.902;8.590;2024-02-21T07:10:14;7.60;99.90
7494;DHT22;3788;49.902;8.590;2024-02-21T07:12:41;7.60;99.90
7494;DHT22;3788;49.902;8.590;2024-02-21T07:15:08;7.60;99.90
7494;DHT22;3788;49.902;8.590;2024-02-21T07:17:36;7.70;99.90
7494;DHT22;3788;49.902;8.590;2024-02-21T07:20:04;7.70;99.90
7494;DHT22;3788;49.902;8.590;2024-02-21T07:22:30;7.70;99.90
7494;DHT22;3788;49.902;8.590;2024-02-21T07:24:57;7.80;99.90
7494;DHT22;3788;49.902;8.590;2024-02-21T07:27:23;7.80;99.90
7494;DHT22;3788;49.902;8.590;2024-02-21T07:29:53;7.90;99.90
7494;DHT22;3788;49.902;8.590;2024-02-21T07:32:20;8.10;99.90
7494;DHT22;3788;49.902;8.590;2024-02-21T07:34:48;8.20;99.90
7494;DHT22;3788;49.902;8.590;2024-02-21T07:37:14;8.40;99.90
7494;DHT22;3788;49.902;8.590;2024-02-21T07:39:41;8.50;99.90
7494;DHT22;3788;49.902;8.590;2024-02-21T07:42:08;8.70;99.90
7494;DHT22;3788;49.902;8.590;2024-02-21T07:44:34;8.80;99.90
7494;DHT22;3788;49.902;8.590;2024-02-21T07:47:01;8.90;99.90
7494;DHT22;3788;49.902;8.590;2024-02-21T07:49:28;9.00;99.90
7494;DHT22;3788;49.902;8.590;2024-02-21T07:51:55;9.00;99.90
7494;DHT22;3788;49.902;8.590;2024-02-21T07:54:22;9.00;99.90
7494;DHT22;3788;49.902;8.590;2024-02-21T07:56:49;9.10;99.90
7494;DHT22;3788;49.902;8.590;2024-02-21T07:59:15;9.20;99.90
7494;DHT22;3788;49.902;8.590;2024-02-21T08:01:42;9.20;99.90
7494;DHT22;3788;49.902;8.590;2024-02-21T08:04:10;9.20;99.90
7494;DHT22;3788;49.902;8.590;2024-02-21T08:06:36;9.30;99.90
7494;DHT22;3788;49.902;8.590;2024-02-21T08:09:04;9.30;99.90
7494;DHT22;3788;49.902;8.590;2024-02-21T08:11:31;9.30;99.90
7494;DHT22;3788;49.902;8.590;2024-02-21T08:13:57;9.20;99.90
7494;DHT22;3788;49.902;8.590;2024-02-21T08:16:24;9.20;99.90
7494;DHT22;3788;49.902;8.590;2024-02-21T08:18:51;9.20;99.90
7494;DHT22;3788;49.902;8.590;2024-02-21T08:21:17;9.10;99.90
7494;DHT22;3788;49.902;8.590;2024-02-21T08:23:44;9.10;99.90
7494;DHT22;3788;49.902;8.590;2024-02-21T08:26:12;9.10;99.90
7494;DHT22;3788;49.902;8.590;2024-02-21T08:28:39;9.10;99.90
7494;DHT22;3788;49.902;8.590;2024-02-21T08:31:05;9.10;99.90
7494;DHT22;3788;49.902;8.590;2024-02-21T08:33:32;9.10;99.90
7494;DHT22;3788;49.902;8.590;2024-02-21T08:35:59;9.10;99.90
7494;DHT22;3788;49.902;8.590;2024-02-21T08:38:25;9.10;99.90
7494;DHT22;3788;49.902;8.590;2024-02-21T08:40:52;9.20;99.90
7494;DHT22;3788;49.902;8.590;2024-02-21T08:43:20;9.20;99.90
7494;DHT22;3788;49.902;8.590;2024-02-21T08:45:47;9.20;99.90
7494;DHT22;3788;49.902;8.590;2024-02-21T08:48:13;9.30;99.90
7494;DHT22;3788;49.902;8.590;2024-02-21T08:50:40;9.30;99.90
7494;DHT22;3788;49.902;8.590;2024-02-21T08:53:07;9.30;99.90
7494;DHT22;3788;49.902;8.590;2024-02-21T08:55:34;9.40;99.90
7494;DHT22;3788;49.902;8.590;2024-02-21T08:58:01;9.50;99.90
7494;DHT22;3788;49.902;8.590;2024-02-21T09:00:31;9.60;99.90
7494;DHT22;3788;49.902;8.590;2024-02-21T09:02:58;9.70;99.90
7494;DHT22;3788;49.902;8.590;2024-02-21T09:05:25;9.90;99.90
7494;DHT22;3788;49.902;8.590;2024-02-21T09:07:51;10.00;99.90
7494;DHT22;3788;49.902;8.590;2024-02-21T09:10:18;10.10;99.90
7494;DHT22;3788;49.902;8.590;2024-02-21T09:12:45;10.30;99.90
7494;DHT22;3788;49.902;8.590;2024-02-21T09:15:13;10.50;99.90
7494;DHT22;3788;49.902;8.590;2024-02-21T09:17:41;10.80;99.90
7494;DHT22;3788;49.902;8.590;2024-02-21T09:20:13;10.90;99.90
7494;DHT22;3788;49.902;8.590;2024-02-21T09:22:41;10.90;99.70
7494;DHT22;3788;49.902;8.590;2024-02-21T09:25:08;10.80;99.50
7494;DHT22;3788;49.902;8.590;2024-02-21T09:27:37;10.70;99.50
7494;DHT22;3788;49.902;8.590;2024-02-21T09:30:05;10.70;99.70
7494;DHT22;3788;49.902;8.590;2024-02-21T09:32:31;10.70;99.60
7494;DHT22;3788;49.902;8.590;2024-02-21T09:35:00;10.70;99.20
7494;DHT22;3788;49.902;8.590;2024-02-21T09:37:26;10.80;99.20
7494;DHT22;3788;49.902;8.590;2024-02-21T09:39:53;10.80;99.20
7494;DHT22;3788;49.902;8.590;2024-02-21T09:42:20;10.90;99.00
7494;DHT22;3788;49.902;8.590;2024-02-21T09:44:47;10.90;98.90
7494;DHT22;3788;49.902;8.590;2024-02-21T09:47:17;11.00;98.60
7494;DHT22;3788;49.902;8.590;2024-02-21T09:49:45;11.00;98.60
7494;DHT22;3788;49.902;8.590;2024-02-21T09:52:15;11.10;98.50
7494;DHT22;3788;49.902;8.590;2024-02-21T09:54:42;11.20;98.20
7494;DHT22;3788;49.902;8.590;2024-02-21T09:57:10;11.20;98.20
7494;DHT22;3788;49.902;8.590;2024-02-21T09:59:37;11.50;98.10
7494;DHT22;3788;49.902;8.590;2024-02-21T10:02:04;11.50;97.50
7494;DHT22;3788;49.902;8.590;2024-02-21T10:04:31;11.40;97.60
7494;DHT22;3788;49.902;8.590;2024-02-21T10:06:58;11.30;97.60
7494;DHT22;3788;49.902;8.590;2024-02-21T10:09:27;11.30;97.80
7494;DHT22;3788;49.902;8.590;2024-02-21T10:11:55;11.20;97.80
7494;DHT22;3788;49.902;8.590;2024-02-21T10:14:22;11.10;98.10
7494;DHT22;3788;49.902;8.590;2024-02-21T10:16:55;11.00;98.40
7494;DHT22;3788;49.902;8.590;2024-02-21T10:19:22;10.90;98.40
7494;DHT22;3788;49.902;8.590;2024-02-21T10:22:04;10.80;98.50
7494;DHT22;3788;49.902;8.590;2024-02-21T10:24:34;10.80;98.80
7494;DHT22;3788;49.902;8.590;2024-02-21T10:27:04;10.80;98.80
7494;DHT22;3788;49.902;8.590;2024-02-21T10:29:33;10.70;98.90
7494;DHT22;3788;49.902;8.590;2024-02-21T10:32:05;10.80;99.10
7494;DHT22;3788;49.902;8.590;2024-02-21T10:34:31;10.80;99.10
7494;DHT22;3788;49.902;8.590;2024-02-21T10:37:00;10.70;98.80
7494;DHT22;3788;49.902;8.590;2024-02-21T10:39:27;10.70;99.30
7494;DHT22;3788;49.902;8.590;2024-02-21T10:41:59;10.70;99.40
7494;DHT22;3788;49.902;8.590;2024-02-21T10:44:27;10.80;99.40
7494;DHT22;3788;49.902;8.590;2024-02-21T10:46:55;10.90;99.30
7494;DHT22;3788;49.902;8.590;2024-02-21T10:49:23;10.90;99.00
7494;DHT22;3788;49.902;8.590;2024-02-21T10:51:54;10.90;99.10
7494;DHT22;3788;49.902;8.590;2024-02-21T10:54:38;10.80;98.90
7494;DHT22;3788;49.902;8.590;2024-02-21T10:57:07;10.80;99.10
7494;DHT22;3788;49.902;8.590;2024-02-21T10:59:36;10.80;99.20
7494;DHT22;3788;49.902;8.590;2024-02-21T11:02:03;10.90;99.30
7494;DHT22;3788;49.902;8.590;2024-02-21T11:04:31;11.00;99.20
7494;DHT22;3788;49.902;8.590;2024-02-21T11:07:02;11.00;98.80
7494;DHT22;3788;49.902;8.590;2024-02-21T11:09:30;11.10;98.80
7494;DHT22;3788;49.902;8.590;2024-02-21T11:11:57;11.10;99.10
7494;DHT22;3788;49.902;8.590;2024-02-21T11:14:27;11.20;98.70
7494;DHT22;3788;49.902;8.590;2024-02-21T11:16:54;11.20;98.60
7494;DHT22;3788;49.902;8.590;2024-02-21T11:19:24;11.20;98.10
7494;DHT22;3788;49.902;8.590;2024-02-21T11:21:52;11.20;97.80
7494;DHT22;3788;49.902;8.590;2024-02-21T11:24:27;11.30;98.10
7494;DHT22;3788;49.902;8.590;2024-02-21T11:26:54;11.30;97.90
7494;DHT22;3788;49.902;8.590;2024-02-21T11:29:25;11.40;98.10
7494;DHT22;3788;49.902;8.590;2024-02-21T11:31:52;11.50;98.10
7494;DHT22;3788;49.902;8.590;2024-02-21T11:34:18;11.50;98.10
7494;DHT22;3788;49.902;8.590;2024-02-21T11:36:49;11.60;97.70
7494;DHT22;3788;49.902;8.590;2024-02-21T11:39:24;11.50;97.40
7494;DHT22;3788;49.902;8.590;2024-02-21T11:42:09;11.50;97.30
7494;DHT22;3788;49.902;8.590;2024-02-21T11:44:38;11.50;97.30
7494;DHT22;3788;49.902;8.590;2024-02-21T11:47:05;11.40;97.30
7494;DHT22;3788;49.902;8.590;2024-02-21T11:49:36;11.50;97.70
7494;DHT22;3788;49.902;8.590;2024-02-21T11:52:04;11.50;97.50
7494;DHT22;3788;49.902;8.590;2024-02-21T11:54:31;11.50;97.60
7494;DHT22;3788;49.902;8.590;2024-02-21T11:56:58;11.50;97.40
7494;DHT22;3788;49.902;8.590;2024-02-21T11:59:24;11.50;97.30
7494;DHT22;3788;49.902;8.590;2024-02-21T12:01:53;11.50;97.30
7494;DHT22;3788;49.902;8.590;2024-02-21T12:04:20;11.60;97.40
7494;DHT22;3788;49.902;8.590;2024-02-21T12:06:49;11.60;96.70
7494;DHT22;3788;49.902;8.590;2024-02-21T12:09:16;11.50;96.80
7494;DHT22;3788;49.902;8.590;2024-02-21T12:11:43;11.40;97.00
7494;DHT22;3788;49.902;8.590;2024-02-21T12:14:15;11.40;97.20
7494;DHT22;3788;49.902;8.590;2024-02-21T12:16:45;11.40;97.30
7494;DHT22;3788;49.902;8.590;2024-02-21T12:19:14;11.50;97.30
7494;DHT22;3788;49.902;8.590;2024-02-21T12:21:42;11.60;97.50
7494;DHT22;3788;49.902;8.590;2024-02-21T12:24:13;11.60;97.40
7494;DHT22;3788;49.902;8.590;2024-02-21T12:26:41;11.70;96.80
7494;DHT22;3788;49.902;8.590;2024-02-21T12:29:08;11.70;96.60
7494;DHT22;3788;49.902;8.590;2024-02-21T12:31:35;11.60;96.80
7494;DHT22;3788;49.902;8.590;2024-02-21T12:34:02;11.70;97.00
7494;DHT22;3788;49.902;8.590;2024-02-21T12:36:31;11.80;97.00
7494;DHT22;3788;49.902;8.590;2024-02-21T12:38:57;11.90;97.10
7494;DHT22;3788;49.902;8.590;2024-02-21T12:41:24;12.00;96.80
7494;DHT22;3788;49.902;8.590;2024-02-21T12:43:52;12.10;96.50
7494;DHT22;3788;49.902;8.590;2024-02-21T12:46:19;12.10;96.40
7494;DHT22;3788;49.902;8.590;2024-02-21T12:48:48;12.10;96.30
7494;DHT22;3788;49.902;8.590;2024-02-21T12:51:14;12.10;96.40
7494;DHT22;3788;49.902;8.590;2024-02-21T12:53:47;12.00;96.00
7494;DHT22;3788;49.902;8.590;2024-02-21T12:56:15;12.00;96.00
7494;DHT22;3788;49.902;8.590;2024-02-21T12:58:42;12.00;96.00
7494;DHT22;3788;49.902;8.590;2024-02-21T13:01:08;12.00;96.10
7494;DHT22;3788;49.902;8.590;2024-02-21T13:03:35;12.00;96.10
7494;DHT22;3788;49.902;8.590;2024-02-21T13:06:02;11.90;96.10
7494;DHT22;3788;49.902;8.590;2024-02-21T13:08:28;11.90;96.20
7494;DHT22;3788;49.902;8.590;2024-02-21T13:10:57;11.90;96.20
7494;DHT22;3788;49.902;8.590;2024-02-21T13:13:24;11.90;96.30
7494;DHT22;3788;49.902;8.590;2024-02-21T13:15:51;11.90;96.20
7494;DHT22;3788;49.902;8.590;2024-02-21T13:18:17;11.80;96.20
7494;DHT22;3788;49.902;8.590;2024-02-21T13:20:44;11.80;96.20
7494;DHT22;3788;49.902;8.590;2024-02-21T13:23:11;11.80;96.50
7494;DHT22;3788;49.902;8.590;2024-02-21T13:25:38;11.80;96.70
7494;DHT22;3788;49.902;8.590;2024-02-21T13:28:06;11.80;96.70
7494;DHT22;3788;49.902;8.590;2024-02-21T13:30:35;11.80;96.60
7494;DHT22;3788;49.902;8.590;2024-02-21T13:33:02;11.80;96.50
7494;DHT22;3788;49.902;8.590;2024-02-21T13:35:29;11.80;96.40
7494;DHT22;3788;49.902;8.590;2024-02-21T13:37:55;11.80;96.60
7494;DHT22;3788;49.902;8.590;2024-02-21T13:40:22;11.80;96.60
7494;DHT22;3788;49.902;8.590;2024-02-21T13:42:50;11.80;96.50
7494;DHT22;3788;49.902;8.590;2024-02-21T13:45:21;11.80;96.50
7494;DHT22;3788;49.902;8.590;2024-02-21T13:47:48;11.90;96.20
7494;DHT22;3788;49.902;8.590;2024-02-21T13:50:16;11.90;96.30
7494;DHT22;3788;49.902;8.590;2024-02-21T13:52:44;11.90;96.20
7494;DHT22;3788;49.902;8.590;2024-02-21T13:55:10;11.90;96.10
7494;DHT22;3788;49.902;8.590;2024-02-21T13:57:37;12.00;96.00
7494;DHT22;3788;49.902;8.590;2024-02-21T14:00:05;12.00;96.10
7494;DHT22;3788;49.902;8.590;2024-02-21T14:02:37;12.00;95.80
7494;DHT22;3788;49.902;8.590;2024-02-21T14:05:04;11.90;95.70
7494;DHT22;3788;49.902;8.590;2024-02-21T14:07:32;11.90;95.80
7494;DHT22;3788;49.902;8.590;2024-02-21T14:09:58;11.90;95.70
7494;DHT22;3788;49.902;8.590;2024-02-21T14:12:25;11.90;95.70
7494;DHT22;3788;49.902;8.590;2024-02-21T14:14:52;11.90;95.70
7494;DHT22;3788;49.902;8.590;2024-02-21T14:17:18;11.90;95.50
7494;DHT22;3788;49.902;8.590;2024-02-21T14:19:46;11.90;95.40
7494;DHT22;3788;49.902;8.590;2024-02-21T14:22:13;11.90;95.50
7494;DHT22;3788;49.902;8.590;2024-02-21T14:24:40;12.00;95.50
7494;DHT22;3788;49.902;8.590;2024-02-21T14:27:07;12.00;95.40
7494;DHT22;3788;49.902;8.590;2024-02-21T14:29:34;12.00;95.50
7494;DHT22;3788;49.902;8.590;2024-02-21T14:32:01;12.00;95.80
7494;DHT22;3788;49.902;8.590;2024-02-21T14:34:28;12.00;95.70
7494;DHT22;3788;49.902;8.590;2024-02-21T14:36:56;12.00;95.40
7494;DHT22;3788;49.902;8.590;2024-02-21T14:39:23;12.00;95.50
7494;DHT22;3788;49.902;8.590;2024-02-21T14:41:49;12.00;95.50
7494;DHT22;3788;49.902;8.590;2024-02-21T14:44:16;12.00;95.50
7494;DHT22;3788;49.902;8.590;2024-02-21T14:46:43;12.00;95.50
7494;DHT22;3788;49.902;8.590;2024-02-21T14:49:10;11.90;95.40
7494;DHT22;3788;49.902;8.590;2024-02-21T14:51:36;11.90;95.70
7494;DHT22;3788;49.902;8.590;2024-02-21T14:54:04;11.90;95.60
7494;DHT22;3788;49.902;8.590;2024-02-21T14:56:31;11.90;95.60
7494;DHT22;3788;49.902;8.590;2024-02-21T14:58:58;11.90;95.50
7494;DHT22;3788;49.902;8.590;2024-02-21T15:01:24;11.90;95.50
7494;DHT22;3788;49.902;8.590;2024-02-21T15:03:51;11.90;95.70
7494;DHT22;3788;49.902;8.590;2024-02-21T15:06:18;11.90;95.80
7494;DHT22;3788;49.902;8.590;2024-02-21T15:08:45;11.90;95.80
7494;DHT22;3788;49.902;8.590;2024-02-21T15:11:12;11.90;95.80
7494;DHT22;3788;49.902;8.590;2024-02-21T15:13:39;11.80;95.80
7494;DHT22;3788;49.902;8.590;2024-02-21T15:16:06;11.80;95.50
7494;DHT22;3788;49.902;8.590;2024-02-21T15:18:33;11.80;95.70
7494;DHT22;3788;49.902;8.590;2024-02-21T15:21:03;11.80;95.70
7494;DHT22;3788;49.902;8.590;2024-02-21T15:23:29;11.70;95.80
7494;DHT22;3788;49.902;8.590;2024-02-21T15:25:56;11.70;95.80
7494;DHT22;3788;49.902;8.590;2024-02-21T15:28:26;11.70;95.90
7494;DHT22;3788;49.902;8.590;2024-02-21T15:30:54;11.60;95.80
7494;DHT22;3788;49.902;8.590;2024-02-21T15:33:20;11.60;96.00
7494;DHT22;3788;49.902;8.590;2024-02-21T15:35:47;11.50;96.00
7494;DHT22;3788;49.902;8.590;2024-02-21T15:38:14;11.50;96.10
7494;DHT22;3788;49.902;8.590;2024-02-21T15:40:41;11.50;96.20
7494;DHT22;3788;49.902;8.590;2024-02-21T15:43:07;11.50;96.10
7494;DHT22;3788;49.902;8.590;2024-02-21T15:45:35;11.40;96.10
7494;DHT22;3788;49.902;8.590;2024-02-21T15:48:05;11.40;96.10
7494;DHT22;3788;49.902;8.590;2024-02-21T15:50:32;11.40;95.90
7494;DHT22;3788;49.902;8.590;2024-02-21T15:52:59;11.40;95.80
7494;DHT22;3788;49.902;8.590;2024-02-21T15:55:26;11.40;95.80
7494;DHT22;3788;49.902;8.590;2024-02-21T15:57:54;11.30;95.70
7494;DHT22;3788;49.902;8.590;2024-02-21T16:00:21;11.30;95.80
7494;DHT22;3788;49.902;8.590;2024-02-21T16:02:49;11.30;95.90
7494;DHT22;3788;49.902;8.590;2024-02-21T16:05:14;11.20;95.90
7494;DHT22;3788;49.902;8.590;2024-02-21T16:07:41;11.20;95.90
7494;DHT22;3788;49.902;8.590;2024-02-21T16:10:09;11.20;96.00